Time;durP1;ratioP1;P1;durP2;ratioP2;P2;SDS_P1;SDS_P2;PMS_P1;PMS_P2;Temp;Humidity;BMP_temperature;BMP_pressure;BME280_temperature;BME280_humidity;BME280_pressure;Samples;Min_cycle;Max_cycle;Signal;HPM_P1;HPM_P2
2022/01/03 00:00:19;;;;;;;;;;;;;;;9.92;69.03;96584.22;5050750;28;19954;-76
2022/01/03 00:02:45;;;;;;;;;;;;;;;9.92;68.41;96577.16;5048828;28;19963;-75
2022/01/03 00:05:11;;;;;;;;;;;;;;;9.95;68.62;96587.22;5053638;28;19979;-78
2022/01/03 00:07:38;;;;;;;;;;;;;;;9.96;69.08;96593.25;5056601;28;19970;-76
2022/01/03 00:10:05;;;;;;;;;;;;;;;9.95;69.33;96595.09;5066108;28;19954;-76
2022/01/03 00:12:32;;;;;;;;;;;;;;;9.94;69.00;96601.31;5056881;28;19956;-76
2022/01/03 00:14:59;;;;;;;;;;;;;;;9.93;68.84;96594.50;5052322;28;20287;-76
2022/01/03 00:17:25;;;;;;;;;;;;;;;9.93;68.51;96567.47;5074322;28;19957;-76
2022/01/03 00:19:51;;;;;;;;;;;;;;;9.91;68.80;96562.47;5046636;28;20303;-76
2022/01/03 00:22:19;;;;;;;;;;;;;;;9.94;68.52;96574.34;5051625;28;19963;-76
2022/01/03 00:24:48;;;;;;;;;;;;;;;9.95;68.43;96573.31;5056561;28;20313;-76
2022/01/03 00:27:15;;;;;;;;;;;;;;;9.96;68.21;96561.84;5057994;28;19955;-76
2022/01/03 00:29:43;;;;;;;;;;;;;;;9.95;68.38;96555.78;5056733;28;19973;-76
2022/01/03 00:32:09;;;;;;;;;;;;;;;9.93;67.72;96557.81;5044277;28;20403;-76
2022/01/03 00:34:36;;;;;;;;;;;;;;;9.93;67.55;96575.34;5044617;28;19957;-76
2022/01/03 00:37:04;;;;;;;;;;;;;;;9.93;67.89;96570.09;5060581;28;20401;-76
2022/01/03 00:39:31;;;;;;;;;;;;;;;9.91;67.82;96562.47;5057578;28;19951;-76
2022/01/03 00:41:58;;;;;;;;;;;;;;;9.89;67.75;96568.91;5057977;28;19971;-76
2022/01/03 00:44:24;;;;;;;;;;;;;;;9.85;68.28;96567.72;5062310;28;19960;-76
2022/01/03 00:46:54;;;;;;;;;;;;;;;9.82;67.58;96553.22;5056678;28;20420;-76
2022/01/03 00:49:20;;;;;;;;;;;;;;;9.81;67.90;96563.94;5045489;28;19968;-75
2022/01/03 00:51:45;;;;;;;;;;;;;;;9.80;68.44;96591.91;5073757;28;19967;-75
2022/01/03 00:54:11;;;;;;;;;;;;;;;9.78;68.20;96580.06;5054073;28;20364;-75
2022/01/03 00:56:43;;;;;;;;;;;;;;;9.74;68.38;96587.53;5043401;28;20046;-76
2022/01/03 00:59:10;;;;;;;;;;;;;;;9.72;68.22;96579.06;5060936;28;19966;-75
2022/01/03 01:01:38;;;;;;;;;;;;;;;9.71;68.57;96596.59;5062177;28;19966;-75
2022/01/03 01:04:06;;;;;;;;;;;;;;;9.70;68.54;96578.47;5037267;28;20395;-76
2022/01/03 01:06:33;;;;;;;;;;;;;;;9.66;69.01;96579.91;5059398;28;19972;-76
2022/01/03 01:09:01;;;;;;;;;;;;;;;9.64;68.81;96595.84;5061088;28;19958;-75
2022/01/03 01:11:28;;;;;;;;;;;;;;;9.66;69.18;96603.47;5057810;28;19960;-76
2022/01/03 01:13:54;;;;;;;;;;;;;;;9.63;69.46;96599.44;5034127;28;20306;-76
2022/01/03 01:16:20;;;;;;;;;;;;;;;9.62;69.59;96586.59;5052222;28;20029;-75
2022/01/03 01:18:46;;;;;;;;;;;;;;;9.60;69.63;96604.31;5059589;28;20421;-76
2022/01/03 01:21:13;;;;;;;;;;;;;;;9.57;69.73;96602.91;5047045;28;19959;-75
2022/01/03 01:23:41;;;;;;;;;;;;;;;9.55;69.84;96587.41;5051616;28;20434;-76
2022/01/03 01:28:52;;;;;;;;;;;;;;;9.51;69.92;96591.47;5055051;28;19965;-76
2022/01/03 01:31:22;;;;;;;;;;;;;;;9.49;70.24;96583.00;5044643;28;19960;-76
2022/01/03 01:33:51;;;;;;;;;;;;;;;9.47;70.45;96586.81;5065983;28;19958;-76
2022/01/03 01:36:17;;;;;;;;;;;;;;;9.45;70.68;96600.13;5048392;28;19951;-76
2022/01/03 01:38:46;;;;;;;;;;;;;;;9.42;70.73;96597.13;5052604;28;19958;-76
2022/01/03 01:41:13;;;;;;;;;;;;;;;9.40;70.99;96602.56;5056581;28;20348;-75
2022/01/03 01:43:43;;;;;;;;;;;;;;;9.39;71.23;96600.16;5063018;28;19957;-76
2022/01/03 01:46:11;;;;;;;;;;;;;;;9.36;71.44;96603.97;5061880;28;19973;-75
2022/01/03 01:48:38;;;;;;;;;;;;;;;9.35;71.53;96618.09;5054429;28;19968;-75
2022/01/03 01:51:05;;;;;;;;;;;;;;;9.32;71.82;96623.72;5053587;28;19986;-76
2022/01/03 01:53:38;;;;;;;;;;;;;;;9.31;71.62;96632.59;5054926;28;19968;-76
2022/01/03 01:56:08;;;;;;;;;;;;;;;9.30;71.47;96623.94;5051292;28;19957;-75
2022/01/03 01:58:44;;;;;;;;;;;;;;;9.30;71.74;96620.50;5053745;28;19954;-76
2022/01/03 02:01:12;;;;;;;;;;;;;;;9.32;71.36;96611.47;5051939;28;19958;-76
2022/01/03 02:03:52;;;;;;;;;;;;;;;9.36;71.18;96622.28;5054574;28;19965;-75
2022/01/03 02:06:25;;;;;;;;;;;;;;;9.37;71.24;96631.78;5048288;28;19996;-76
2022/01/03 02:09:05;;;;;;;;;;;;;;;9.34;71.24;96619.09;5058642;28;19954;-76
2022/01/03 02:11:51;;;;;;;;;;;;;;;9.34;71.29;96603.38;5040784;28;19974;-76
2022/01/03 02:14:18;;;;;;;;;;;;;;;9.32;71.66;96608.00;5063313;28;19959;-77
2022/01/03 02:16:44;;;;;;;;;;;;;;;9.32;71.79;96618.47;5048387;28;19950;-75
2022/01/03 02:19:11;;;;;;;;;;;;;;;9.31;71.94;96622.13;5079754;28;19964;-75
2022/01/03 02:21:37;;;;;;;;;;;;;;;9.30;71.95;96613.47;5048761;28;20022;-75
2022/01/03 02:24:04;;;;;;;;;;;;;;;9.31;72.24;96620.31;5063657;28;20320;-75
2022/01/03 02:26:30;;;;;;;;;;;;;;;9.32;72.62;96614.06;5070485;28;19991;-75
2022/01/03 02:28:56;;;;;;;;;;;;;;;9.31;72.92;96616.88;5059901;28;19973;-75
2022/01/03 02:31:22;;;;;;;;;;;;;;;9.31;73.20;96627.34;5079140;28;19995;-76
2022/01/03 02:33:49;;;;;;;;;;;;;;;9.26;73.84;96617.50;5049359;28;19951;-76
2022/01/03 02:36:18;;;;;;;;;;;;;;;9.24;73.19;96619.53;5041569;28;19959;-75
2022/01/03 02:38:44;;;;;;;;;;;;;;;9.24;73.43;96637.84;5070787;28;19959;-75
2022/01/03 02:41:11;;;;;;;;;;;;;;;9.24;72.98;96631.78;5072690;28;20329;-75
2022/01/03 02:43:37;;;;;;;;;;;;;;;9.24;72.89;96622.16;5048090;28;19955;-76
2022/01/03 02:46:03;;;;;;;;;;;;;;;9.25;72.62;96625.56;5056606;28;20003;-76
2022/01/03 02:48:29;;;;;;;;;;;;;;;9.24;72.32;96622.16;5064396;28;19962;-76
2022/01/03 02:50:55;;;;;;;;;;;;;;;9.27;71.86;96626.16;5058818;28;20426;-75
2022/01/03 02:53:21;;;;;;;;;;;;;;;9.29;71.52;96618.91;5057720;28;19958;-76
2022/01/03 02:55:47;;;;;;;;;;;;;;;9.30;71.69;96629.19;5052449;28;19959;-76
2022/01/03 02:58:13;;;;;;;;;;;;;;;9.32;71.22;96631.56;5071186;28;20355;-76
2022/01/03 03:00:45;;;;;;;;;;;;;;;9.33;71.11;96625.34;5049790;28;19963;-76
2022/01/03 03:03:14;;;;;;;;;;;;;;;9.32;71.30;96629.78;5067374;28;19971;-76
2022/01/03 03:05:41;;;;;;;;;;;;;;;9.32;70.98;96626.34;5054652;28;19982;-76
2022/01/03 03:08:07;;;;;;;;;;;;;;;9.30;71.10;96623.13;5054264;28;19962;-76
2022/01/03 03:10:36;;;;;;;;;;;;;;;9.30;70.87;96628.34;5065605;28;19965;-76
2022/01/03 03:13:02;;;;;;;;;;;;;;;9.29;70.38;96634.59;5057666;28;19952;-76
2022/01/03 03:15:28;;;;;;;;;;;;;;;9.29;70.28;96632.00;5056505;28;19976;-76
2022/01/03 03:17:54;;;;;;;;;;;;;;;9.28;70.11;96625.97;5046264;28;19965;-76
2022/01/03 03:20:21;;;;;;;;;;;;;;;9.28;70.16;96627.75;5073615;28;20405;-76
2022/01/03 03:22:51;;;;;;;;;;;;;;;9.26;69.91;96625.38;5050243;28;19966;-76
2022/01/03 03:25:19;;;;;;;;;;;;;;;9.26;70.01;96650.69;5057022;28;19959;-76
2022/01/03 03:27:47;;;;;;;;;;;;;;;9.26;69.48;96646.28;5064258;28;19975;-76
2022/01/03 03:30:14;;;;;;;;;;;;;;;9.26;69.19;96648.09;5057669;28;19959;-76
2022/01/03 03:32:42;;;;;;;;;;;;;;;9.25;69.09;96638.63;5055210;28;20024;-76
2022/01/03 03:35:08;;;;;;;;;;;;;;;9.25;69.15;96626.34;5050402;28;19955;-76
2022/01/03 03:37:34;;;;;;;;;;;;;;;9.25;68.93;96625.56;5055079;28;20336;-75
2022/01/03 03:40:00;;;;;;;;;;;;;;;9.25;68.70;96620.31;5061431;28;19955;-75
2022/01/03 03:42:25;;;;;;;;;;;;;;;9.26;68.90;96625.38;5052413;28;19986;-75
2022/01/03 03:44:51;;;;;;;;;;;;;;;9.26;68.80;96629.78;5051703;28;19958;-75
2022/01/03 03:47:17;;;;;;;;;;;;;;;9.25;68.73;96615.88;5054870;28;19974;-76
2022/01/03 03:49:43;;;;;;;;;;;;;;;9.23;68.70;96617.09;5043574;28;20360;-76
2022/01/03 03:52:09;;;;;;;;;;;;;;;9.22;68.54;96618.94;5032645;28;19970;-75
2022/01/03 03:54:36;;;;;;;;;;;;;;;9.22;68.95;96623.34;5060462;28;19963;-76
2022/01/03 03:57:03;;;;;;;;;;;;;;;9.21;69.23;96616.50;5056745;28;20393;-76
2022/01/03 03:59:28;;;;;;;;;;;;;;;9.19;68.83;96619.31;5048332;28;19961;-77
2022/01/03 04:01:55;;;;;;;;;;;;;;;9.20;69.41;96625.34;5063497;28;20043;-76
2022/01/03 04:04:21;;;;;;;;;;;;;;;9.17;69.32;96631.81;5063480;28;20024;-75
2022/01/03 04:06:50;;;;;;;;;;;;;;;9.13;69.24;96625.38;5057137;28;19978;-76
2022/01/03 04:09:16;;;;;;;;;;;;;;;9.11;69.53;96630.81;5054014;28;19950;-76
2022/01/03 04:11:42;;;;;;;;;;;;;;;9.09;69.45;96632.00;5050444;28;19978;-76
2022/01/03 04:14:08;;;;;;;;;;;;;;;9.05;69.65;96625.56;5053038;28;20007;-75
2022/01/03 04:16:34;;;;;;;;;;;;;;;9.01;69.81;96614.75;5061459;28;20024;-76
2022/01/03 04:19:00;;;;;;;;;;;;;;;8.99;69.95;96613.31;5050439;28;19956;-76
2022/01/03 04:21:27;;;;;;;;;;;;;;;8.96;69.97;96613.72;5037293;28;19966;-76
2022/01/03 04:23:53;;;;;;;;;;;;;;;8.92;70.32;96608.09;5058173;28;19956;-75
2022/01/03 04:26:20;;;;;;;;;;;;;;;8.88;70.50;96601.66;5051730;28;19960;-75
2022/01/03 04:28:46;;;;;;;;;;;;;;;8.83;70.74;96597.03;5063449;28;19958;-75
2022/01/03 04:31:12;;;;;;;;;;;;;;;8.79;70.83;96603.69;5054494;28;19962;-75
2022/01/03 04:33:38;;;;;;;;;;;;;;;8.78;71.29;96611.72;5054520;28;19961;-76
2022/01/03 04:36:04;;;;;;;;;;;;;;;8.76;71.36;96608.50;5049758;28;20025;-76
2022/01/03 04:38:32;;;;;;;;;;;;;;;8.76;71.43;96616.34;5068598;28;19959;-76
2022/01/03 04:40:59;;;;;;;;;;;;;;;8.75;71.49;96615.53;5051591;28;19958;-76
2022/01/03 04:43:27;;;;;;;;;;;;;;;8.76;71.54;96614.56;5050392;28;20293;-75
2022/01/03 04:45:55;;;;;;;;;;;;;;;8.74;71.48;96612.13;5051895;28;20002;-75
2022/01/03 04:48:21;;;;;;;;;;;;;;;8.74;71.42;96611.34;5037762;28;19951;-75
2022/01/03 04:50:47;;;;;;;;;;;;;;;8.73;71.04;96615.78;5056981;28;19985;-75
2022/01/03 04:53:12;;;;;;;;;;;;;;;8.72;70.60;96613.34;5059772;28;19967;-75
2022/01/03 04:55:38;;;;;;;;;;;;;;;8.74;70.03;96606.09;5041553;28;20076;-77
2022/01/03 04:58:04;;;;;;;;;;;;;;;8.76;69.75;96621.56;5059445;28;19964;-76
2022/01/03 05:00:30;;;;;;;;;;;;;;;8.77;69.63;96624.00;5036735;28;20453;-75
2022/01/03 05:02:56;;;;;;;;;;;;;;;8.77;69.12;96621.38;5055414;28;20466;-75
2022/01/03 05:05:22;;;;;;;;;;;;;;;8.79;69.30;96629.03;5051807;28;20357;-75
2022/01/03 05:07:51;;;;;;;;;;;;;;;8.78;68.93;96630.03;5055308;28;20334;-75
2022/01/03 05:10:17;;;;;;;;;;;;;;;8.78;69.00;96630.84;5045359;28;19964;-75
2022/01/03 05:12:43;;;;;;;;;;;;;;;8.79;68.96;96634.25;5067955;28;19964;-75
2022/01/03 05:15:09;;;;;;;;;;;;;;;8.80;68.78;96641.91;5046459;28;20356;-76
2022/01/03 05:17:34;;;;;;;;;;;;;;;8.79;68.60;96629.03;5051001;28;19972;-76
2022/01/03 05:20:00;;;;;;;;;;;;;;;8.80;68.45;96631.44;5044080;28;19962;-77
2022/01/03 05:22:26;;;;;;;;;;;;;;;8.79;68.62;96629.03;5058622;28;20065;-75
2022/01/03 05:24:52;;;;;;;;;;;;;;;8.74;68.33;96638.28;5055414;28;19962;-76
2022/01/03 05:27:18;;;;;;;;;;;;;;;8.76;68.41;96634.66;5047154;28;20507;-75
2022/01/03 05:29:44;;;;;;;;;;;;;;;8.75;68.39;96633.84;5047687;28;19988;-75
2022/01/03 05:32:10;;;;;;;;;;;;;;;8.76;68.07;96624.19;5054148;28;19970;-75
2022/01/03 05:34:36;;;;;;;;;;;;;;;8.73;68.50;96623.63;5051903;28;20515;-75
2022/01/03 05:37:02;;;;;;;;;;;;;;;8.73;68.22;96621.00;5060529;28;19991;-75
2022/01/03 05:39:28;;;;;;;;;;;;;;;8.69;68.62;96629.41;5050672;28;19959;-76
2022/01/03 05:41:54;;;;;;;;;;;;;;;8.65;68.59;96622.97;5047480;28;20451;-75
2022/01/03 05:44:20;;;;;;;;;;;;;;;8.63;68.64;96628.44;5052765;28;19959;-75
2022/01/03 05:46:49;;;;;;;;;;;;;;;8.59;68.62;96637.69;5071864;28;19973;-75
2022/01/03 05:49:16;;;;;;;;;;;;;;;8.57;68.86;96644.91;5051791;28;19965;-75
2022/01/03 05:51:42;;;;;;;;;;;;;;;8.53;68.50;96635.88;5062347;28;19960;-75
2022/01/03 05:54:10;;;;;;;;;;;;;;;8.52;69.01;96642.09;5061722;28;20013;-75
2022/01/03 05:56:36;;;;;;;;;;;;;;;8.48;68.93;96644.31;5026518;28;19963;-75
2022/01/03 05:59:02;;;;;;;;;;;;;;;8.46;68.87;96656.78;5047038;28;19959;-76
2022/01/03 06:01:28;;;;;;;;;;;;;;;8.44;69.31;96663.19;5067429;28;19953;-76
2022/01/03 06:04:01;;;;;;;;;;;;;;;8.42;69.44;96660.78;5058619;28;19960;-76
2022/01/03 06:09:13;;;;;;;;;;;;;;;8.40;69.22;96664.53;5050311;28;20284;-76
2022/01/03 06:11:39;;;;;;;;;;;;;;;8.39;69.53;96660.34;5059527;28;19962;-75
2022/01/03 06:14:04;;;;;;;;;;;;;;;8.39;69.73;96668.19;5024488;28;19964;-75
2022/01/03 06:16:30;;;;;;;;;;;;;;;8.39;69.64;96670.78;5063635;28;20035;-75
2022/01/03 06:18:56;;;;;;;;;;;;;;;8.39;69.85;96668.19;5055090;28;19960;-75
2022/01/03 06:21:22;;;;;;;;;;;;;;;8.41;70.12;96661.78;5055350;28;19963;-75
2022/01/03 06:23:48;;;;;;;;;;;;;;;8.42;70.17;96652.13;5050052;28;19959;-75
2022/01/03 06:26:14;;;;;;;;;;;;;;;8.40;70.55;96660.16;5059103;28;20043;-75
2022/01/03 06:28:40;;;;;;;;;;;;;;;8.39;71.17;96665.56;5048684;28;19994;-75
2022/01/03 06:31:05;;;;;;;;;;;;;;;8.32;71.53;96666.34;5045929;28;19954;-75
2022/01/03 06:33:31;;;;;;;;;;;;;;;8.29;72.45;96669.38;5053037;28;19995;-76
2022/01/03 06:35:57;;;;;;;;;;;;;;;8.25;73.17;96665.53;5040342;28;20416;-75
2022/01/03 06:38:23;;;;;;;;;;;;;;;8.20;73.88;96657.47;5055673;28;20054;-75
2022/01/03 06:40:52;;;;;;;;;;;;;;;8.18;73.84;96658.69;5064427;28;20468;-75
2022/01/03 06:43:18;;;;;;;;;;;;;;;8.15;74.78;96657.28;5052191;28;19982;-75
2022/01/03 06:45:44;;;;;;;;;;;;;;;8.12;74.85;96661.06;5042235;28;19968;-75
2022/01/03 06:48:10;;;;;;;;;;;;;;;8.09;75.44;96658.84;5065836;28;19972;-75
2022/01/03 06:50:36;;;;;;;;;;;;;;;8.07;75.83;96655.63;5063815;28;19989;-77
2022/01/03 06:53:02;;;;;;;;;;;;;;;8.09;75.85;96650.22;5055773;28;20336;-75
2022/01/03 06:55:28;;;;;;;;;;;;;;;8.08;76.74;96652.03;5056421;28;19961;-75
2022/01/03 06:57:54;;;;;;;;;;;;;;;8.08;76.73;96654.66;5039346;28;19958;-75
2022/01/03 07:00:20;;;;;;;;;;;;;;;8.08;76.75;96652.03;5052458;28;19968;-75
2022/01/03 07:02:46;;;;;;;;;;;;;;;8.07;76.67;96652.22;5064911;28;20009;-76
2022/01/03 07:05:13;;;;;;;;;;;;;;;8.07;76.79;96642.59;5061745;28;20421;-75
2022/01/03 07:07:39;;;;;;;;;;;;;;;8.08;77.47;96661.66;5025258;28;19996;-75
2022/01/03 07:10:06;;;;;;;;;;;;;;;8.09;76.55;96645.00;5063036;28;19955;-75
2022/01/03 07:12:32;;;;;;;;;;;;;;;8.10;77.26;96641.38;5060244;28;20404;-75
2022/01/03 07:20:10;;;;;;;;;;;;;;;8.10;77.37;96651.81;5050630;28;19974;-75
2022/01/03 07:22:40;;;;;;;;;;;;;;;8.09;76.90;96637.97;5060295;28;19977;-75
2022/01/03 07:25:07;;;;;;;;;;;;;;;8.11;77.01;96640.38;5036384;28;19960;-75
2022/01/03 07:27:33;;;;;;;;;;;;;;;8.12;77.21;96649.81;5064045;28;20434;-75
2022/01/03 07:29:59;;;;;;;;;;;;;;;8.10;77.05;96642.16;5064164;28;20011;-75
2022/01/03 07:32:24;;;;;;;;;;;;;;;8.09;77.29;96647.63;5048016;28;19965;-75
2022/01/03 07:34:50;;;;;;;;;;;;;;;8.11;76.79;96653.44;5057494;28;20427;-75
2022/01/03 07:37:16;;;;;;;;;;;;;;;8.10;77.41;96636.94;5046919;28;19999;-75
2022/01/03 07:39:42;;;;;;;;;;;;;;;8.12;76.81;96639.38;5062379;28;19963;-75
2022/01/03 07:42:08;;;;;;;;;;;;;;;8.13;77.29;96633.97;5057599;28;20323;-75
2022/01/03 07:44:34;;;;;;;;;;;;;;;8.14;77.56;96637.38;5043509;28;20049;-75
2022/01/03 07:47:00;;;;;;;;;;;;;;;8.14;76.94;96643.38;5056636;28;19977;-75
2022/01/03 07:49:26;;;;;;;;;;;;;;;8.16;76.88;96630.13;5057331;28;19987;-76
2022/01/03 07:51:52;;;;;;;;;;;;;;;8.18;76.68;96629.94;5057427;28;20343;-75
2022/01/03 07:54:18;;;;;;;;;;;;;;;8.19;76.64;96631.53;5053707;28;19954;-75
2022/01/03 07:56:47;;;;;;;;;;;;;;;8.19;77.24;96631.53;5058860;28;19960;-75
2022/01/03 07:59:13;;;;;;;;;;;;;;;8.20;77.58;96633.97;5056739;28;20332;-74
2022/01/03 08:01:40;;;;;;;;;;;;;;;8.21;77.27;96632.16;5041537;28;19963;-76
2022/01/03 08:04:07;;;;;;;;;;;;;;;8.23;77.05;96627.53;5042161;28;19949;-75
2022/01/03 08:06:33;;;;;;;;;;;;;;;8.23;76.99;96633.59;5066098;28;20422;-75
2022/01/03 08:08:59;;;;;;;;;;;;;;;8.25;76.84;96631.59;5069380;28;20009;-75
2022/01/03 08:11:26;;;;;;;;;;;;;;;8.28;76.65;96633.00;5056208;28;20461;-76
2022/01/03 08:13:53;;;;;;;;;;;;;;;8.30;76.43;96623.94;5047154;28;19959;-75
2022/01/03 08:16:19;;;;;;;;;;;;;;;8.32;76.49;96621.13;5052433;28;20281;-75
2022/01/03 08:18:45;;;;;;;;;;;;;;;8.33;76.57;96626.16;5035492;28;19975;-75
2022/01/03 08:21:13;;;;;;;;;;;;;;;8.37;76.28;96623.16;5055789;28;20011;-75
2022/01/03 08:23:39;;;;;;;;;;;;;;;8.40;75.96;96630.56;5065155;28;20339;-75
2022/01/03 08:26:06;;;;;;;;;;;;;;;8.41;76.05;96629.63;5057688;28;19959;-75
2022/01/03 08:28:31;;;;;;;;;;;;;;;8.44;76.04;96637.03;5040654;28;19988;-75
2022/01/03 08:30:57;;;;;;;;;;;;;;;8.45;75.71;96643.91;5063434;28;20043;-75
2022/01/03 08:33:23;;;;;;;;;;;;;;;8.47;75.43;96632.22;5063877;28;20413;-75
2022/01/03 08:35:49;;;;;;;;;;;;;;;8.51;75.47;96641.28;5042549;28;19961;-75
2022/01/03 08:38:15;;;;;;;;;;;;;;;8.54;75.09;96642.69;5054210;28;19977;-75
2022/01/03 08:40:41;;;;;;;;;;;;;;;8.57;75.14;96637.06;5057510;28;20399;-76
2022/01/03 08:43:07;;;;;;;;;;;;;;;8.61;74.49;96640.91;5039609;28;19962;-75
2022/01/03 08:45:34;;;;;;;;;;;;;;;8.65;74.49;96638.66;5056330;28;19973;-75
2022/01/03 08:48:00;;;;;;;;;;;;;;;8.68;74.16;96639.09;5055064;28;19994;-75
2022/01/03 08:50:26;;;;;;;;;;;;;;;8.72;74.28;96642.09;5059648;28;20415;-75
2022/01/03 08:52:52;;;;;;;;;;;;;;;8.74;74.23;96638.28;5051848;28;19968;-75
2022/01/03 08:55:19;;;;;;;;;;;;;;;8.79;74.33;96629.03;5049815;28;19974;-75
2022/01/03 08:57:51;;;;;;;;;;;;;;;8.81;74.15;96627.81;5063059;28;20301;-75
2022/01/03 09:00:17;;;;;;;;;;;;;;;8.86;74.29;96640.28;5052939;28;19959;-75
2022/01/03 09:02:43;;;;;;;;;;;;;;;8.89;74.19;96639.91;5046640;28;20420;-75
2022/01/03 09:05:09;;;;;;;;;;;;;;;8.92;73.98;96642.91;5050373;28;19975;-75
2022/01/03 09:07:36;;;;;;;;;;;;;;;8.97;74.16;96649.34;5049582;28;20007;-75
2022/01/03 09:10:03;;;;;;;;;;;;;;;9.00;73.68;96641.09;5056101;28;20318;-75
2022/01/03 09:12:29;;;;;;;;;;;;;;;9.03;73.58;96632.81;5052695;28;19960;-75
2022/01/03 09:14:55;;;;;;;;;;;;;;;9.06;73.79;96638.47;5063797;28;19962;-75
2022/01/03 09:17:21;;;;;;;;;;;;;;;9.08;73.76;96635.66;5064481;28;20012;-75
2022/01/03 09:19:47;;;;;;;;;;;;;;;9.09;73.80;96634.63;5062738;28;19963;-75
2022/01/03 09:22:17;;;;;;;;;;;;;;;9.10;73.64;96631.81;5050911;28;19999;-75
2022/01/03 09:24:54;;;;;;;;;;;;;;;9.13;73.47;96620.13;5054518;28;20382;-75
2022/01/03 09:30:06;;;;;;;;;;;;;;;9.17;73.34;96621.34;5055564;28;19971;-75
2022/01/03 09:32:32;;;;;;;;;;;;;;;9.19;73.38;96621.94;5064373;28;20318;-75
2022/01/03 09:34:58;;;;;;;;;;;;;;;9.19;73.75;96614.09;5060730;28;19957;-76
2022/01/03 09:37:24;;;;;;;;;;;;;;;9.23;73.33;96611.88;5040953;28;19960;-75
2022/01/03 09:39:51;;;;;;;;;;;;;;;9.24;73.28;96605.63;5057667;28;20041;-75
2022/01/03 09:42:19;;;;;;;;;;;;;;;9.25;73.35;96609.84;5040931;28;19964;-76
2022/01/03 09:44:48;;;;;;;;;;;;;;;9.28;73.19;96601.56;5050446;28;19990;-75
2022/01/03 09:47:15;;;;;;;;;;;;;;;9.28;73.20;96612.06;5049273;28;19974;-75
2022/01/03 09:49:42;;;;;;;;;;;;;;;9.29;72.95;96606.63;5049924;28;19990;-75
2022/01/03 09:52:20;;;;;;;;;;;;;;;9.32;73.31;96603.59;5034758;28;20469;-75
2022/01/03 09:54:47;;;;;;;;;;;;;;;9.35;73.25;96603.19;5051602;28;20337;-75
2022/01/03 09:57:13;;;;;;;;;;;;;;;9.37;73.16;96595.13;5057358;28;19957;-75
2022/01/03 09:59:39;;;;;;;;;;;;;;;9.40;73.25;96593.91;5048102;28;19966;-75
2022/01/03 10:02:06;;;;;;;;;;;;;;;9.42;72.90;96591.88;5068395;28;19970;-75
2022/01/03 10:04:32;;;;;;;;;;;;;;;9.44;73.07;96587.25;5061186;28;20404;-75
2022/01/03 10:06:58;;;;;;;;;;;;;;;9.44;72.66;96582.81;5041138;28;19964;-76
2022/01/03 10:09:25;;;;;;;;;;;;;;;9.47;72.91;96589.44;5060613;28;19964;-75
2022/01/03 10:11:51;;;;;;;;;;;;;;;9.47;73.12;96587.66;5059913;28;19960;-75
2022/01/03 10:14:18;;;;;;;;;;;;;;;9.52;72.90;96590.44;5030265;28;20038;-75
2022/01/03 10:16:45;;;;;;;;;;;;;;;9.55;72.86;96589.22;5055131;28;20359;-76
2022/01/03 10:19:14;;;;;;;;;;;;;;;9.57;72.83;96589.81;5061632;28;19964;-76
2022/01/03 10:21:41;;;;;;;;;;;;;;;9.59;72.78;96590.41;5052677;28;19964;-76
2022/01/03 10:24:07;;;;;;;;;;;;;;;9.59;72.47;96585.16;5046328;28;19962;-75
2022/01/03 10:26:36;;;;;;;;;;;;;;;9.59;72.14;96592.22;5076721;28;20428;-75
2022/01/03 10:29:16;;;;;;;;;;;;;;;9.58;72.37;96583.56;5058440;28;19968;-75
2022/01/03 10:31:43;;;;;;;;;;;;;;;9.61;72.25;96587.59;5051739;28;19957;-75
2022/01/03 10:34:10;;;;;;;;;;;;;;;9.62;72.16;96583.97;5060469;28;19963;-75
2022/01/03 10:36:37;;;;;;;;;;;;;;;9.64;72.35;96595.00;5054657;28;20332;-75
2022/01/03 10:39:13;;;;;;;;;;;;;;;9.64;72.22;96597.63;5045377;28;20298;-75
2022/01/03 10:41:39;;;;;;;;;;;;;;;9.65;72.09;96597.44;5056790;28;19968;-75
2022/01/03 10:44:05;;;;;;;;;;;;;;;9.65;71.84;96586.97;5076553;28;19961;-75
2022/01/03 10:46:33;;;;;;;;;;;;;;;9.67;72.01;96592.00;5029419;28;19957;-75
2022/01/03 10:49:08;;;;;;;;;;;;;;;9.70;71.95;96583.72;5052294;28;19978;-77
2022/01/03 10:51:35;;;;;;;;;;;;;;;9.73;71.37;96581.47;5067038;28;19963;-75
2022/01/03 10:54:01;;;;;;;;;;;;;;;9.77;71.74;96578.47;5061925;28;20301;-75
2022/01/03 10:56:30;;;;;;;;;;;;;;;9.79;71.66;96571.19;5056827;28;19959;-75
2022/01/03 10:58:57;;;;;;;;;;;;;;;9.81;71.44;96562.13;5058458;28;19963;-76
2022/01/03 11:01:24;;;;;;;;;;;;;;;9.85;71.42;96567.72;5064864;28;19956;-75
2022/01/03 11:03:51;;;;;;;;;;;;;;;9.87;70.94;96570.94;5039584;28;20310;-76
2022/01/03 11:07:02;;;;;;;;;;;;;;;9.90;71.03;96563.47;5076309;28;19966;-76
2022/01/03 11:11:48;;;;;;;;;;;;;;;10.02;70.27;96560.19;5033695;28;19964;-77
2022/01/03 11:14:30;;;;;;;;;;;;;;;10.03;69.75;96552.09;5054644;28;19958;-75
2022/01/03 11:17:02;;;;;;;;;;;;;;;10.07;69.70;96557.72;5054022;28;19968;-75
2022/01/03 11:19:34;;;;;;;;;;;;;;;10.05;69.15;96550.06;5052933;28;19964;-75
2022/01/03 11:22:00;;;;;;;;;;;;;;;10.06;69.34;96545.66;5059840;28;19954;-77
2022/01/03 11:24:26;;;;;;;;;;;;;;;10.05;69.14;96550.06;5057902;28;20445;-75
2022/01/03 11:26:55;;;;;;;;;;;;;;;10.05;68.91;96550.06;5050260;28;19966;-75
2022/01/03 11:29:21;;;;;;;;;;;;;;;10.08;68.58;96539.19;5029341;28;19978;-75
2022/01/03 11:31:50;;;;;;;;;;;;;;;10.10;69.04;96547.63;5065748;28;19964;-75
2022/01/03 11:34:21;;;;;;;;;;;;;;;10.13;68.93;96543.78;5065875;28;20409;-76
2022/01/03 11:36:48;;;;;;;;;;;;;;;10.16;69.61;96544.16;5068305;28;19958;-76
2022/01/03 11:39:15;;;;;;;;;;;;;;;10.21;69.47;96547.97;5036664;28;19961;-76
2022/01/03 11:41:42;;;;;;;;;;;;;;;10.24;68.34;96523.94;5052383;28;19955;-75
2022/01/03 11:44:12;;;;;;;;;;;;;;;10.27;67.99;96524.34;5063920;28;19960;-75
2022/01/03 11:46:39;;;;;;;;;;;;;;;10.30;68.04;96516.06;5045008;28;19950;-76
2022/01/03 11:49:06;;;;;;;;;;;;;;;10.32;68.18;96505.38;5057412;28;20418;-76
2022/01/03 11:51:32;;;;;;;;;;;;;;;10.38;68.54;96495.84;5058384;28;19955;-75
2022/01/03 11:53:59;;;;;;;;;;;;;;;10.39;67.89;96494.81;5065392;28;19957;-76
2022/01/03 11:56:26;;;;;;;;;;;;;;;10.40;68.07;96496.44;5050635;28;19956;-75
2022/01/03 11:59:03;;;;;;;;;;;;;;;10.41;67.32;96492.78;5039578;28;19969;-76
2022/01/03 12:04:20;;;;;;;;;;;;;;;10.43;66.92;96494.16;5038637;28;19967;-76
2022/01/03 12:06:46;;;;;;;;;;;;;;;10.44;66.34;96492.38;5046199;28;19954;-75
2022/01/03 12:09:30;;;;;;;;;;;;;;;10.44;66.10;96484.50;5055840;28;20016;-76
2022/01/03 12:11:56;;;;;;;;;;;;;;;10.41;65.13;96469.97;5073691;28;20360;-75
2022/01/03 12:14:23;;;;;;;;;;;;;;;10.43;65.50;96472.41;5057769;28;19960;-76
2022/01/03 12:16:50;;;;;;;;;;;;;;;10.45;65.62;96471.16;5025495;28;19970;-75
2022/01/03 12:19:35;;;;;;;;;;;;;;;10.45;63.97;96459.88;5059567;28;19961;-75
2022/01/03 12:22:20;;;;;;;;;;;;;;;10.42;64.29;96455.88;5035952;28;20413;-75
2022/01/03 12:24:46;;;;;;;;;;;;;;;10.40;63.75;96457.91;5064844;28;19957;-75
2022/01/03 12:27:12;;;;;;;;;;;;;;;10.40;63.33;96450.03;5057864;28;20425;-76
2022/01/03 12:29:50;;;;;;;;;;;;;;;10.40;63.10;96450.03;5047793;28;20008;-75
2022/01/03 12:32:16;;;;;;;;;;;;;;;10.41;62.99;96441.16;5038647;28;19975;-76
2022/01/03 12:34:44;;;;;;;;;;;;;;;10.42;62.80;96436.72;5051606;28;19965;-76
2022/01/03 12:37:17;;;;;;;;;;;;;;;10.43;62.27;96427.84;5061571;28;19961;-75
2022/01/03 12:40:01;;;;;;;;;;;;;;;10.44;63.00;96421.59;5059449;28;20375;-75
2022/01/03 12:42:46;;;;;;;;;;;;;;;10.45;63.55;96417.94;5036986;28;19971;-76
2022/01/03 12:45:12;;;;;;;;;;;;;;;10.44;62.86;96405.84;5054045;28;19960;-75
2022/01/03 12:47:38;;;;;;;;;;;;;;;10.46;62.92;96402.00;5066231;28;19962;-76
2022/01/03 12:50:21;;;;;;;;;;;;;;;10.46;63.35;96409.84;5049685;28;19982;-75
2022/01/03 12:52:47;;;;;;;;;;;;;;;10.48;63.31;96399.94;5051466;28;20326;-75
2022/01/03 12:55:32;;;;;;;;;;;;;;;10.51;64.34;96404.75;5057426;28;20416;-76
2022/01/03 12:57:58;;;;;;;;;;;;;;;10.53;64.35;96405.31;5055341;28;19957;-75
2022/01/03 13:00:40;;;;;;;;;;;;;;;10.53;64.05;96392.22;5054079;28;19965;-75
2022/01/03 13:03:21;;;;;;;;;;;;;;;10.53;64.25;96396.66;5067796;28;19969;-75
2022/01/03 13:06:05;;;;;;;;;;;;;;;10.52;63.94;96390.63;5060676;28;19957;-75
2022/01/03 13:08:35;;;;;;;;;;;;;;;10.50;64.35;96387.44;5035058;28;20345;-76
2022/01/03 13:11:02;;;;;;;;;;;;;;;10.48;64.62;96389.47;5034850;28;19964;-77
2022/01/03 13:13:28;;;;;;;;;;;;;;;10.48;64.67;96389.47;5054838;28;19962;-75
2022/01/03 13:15:58;;;;;;;;;;;;;;;10.42;64.33;96379.06;5038124;28;19960;-75